Time;durP1;ratioP1;P1;durP2;ratioP2;P2;SDS_P1;SDS_P2;PMS_P1;PMS_P2;Temp;Humidity;BMP_temperature;BMP_pressure;BME280_temperature;BME280_humidity;BME280_pressure;Samples;Min_cycle;Max_cycle;Signal;HPM_P1;HPM_P2
2022/12/18 05:28:36;;;;;;;8.88;7.85;;;;;;;14.18;69.88;102817.56;6206924;23;20092;-82
2022/12/18 05:31:03;;;;;;;8.68;7.43;;;;;;;14.18;69.63;102813.28;6168513;23;20323;-80
2022/12/18 05:33:32;;;;;;;7.80;6.78;;;;;;;14.17;69.86;102808.91;6168408;23;20000;-79
2022/12/18 05:35:59;;;;;;;8.48;6.88;;;;;;;14.17;69.75;102806.31;6168921;23;20009;-80
2022/12/18 05:38:26;;;;;;;7.60;6.47;;;;;;;14.17;69.41;102810.63;6168382;23;20006;-81
2022/12/18 05:40:53;;;;;;;7.40;6.57;;;;;;;14.17;69.30;102808.03;6171416;23;20016;-81
2022/12/18 05:43:21;;;;;;;8.27;7.10;;;;;;;14.16;69.47;102808.88;6196523;23;20159;-80
2022/12/18 05:45:50;;;;;;;7.40;6.60;;;;;;;14.16;69.55;102798.50;6169978;23;20012;-80
2022/12/18 05:48:17;;;;;;;8.43;7.50;;;;;;;14.17;69.39;102797.66;6171301;23;19997;-81
2022/12/18 05:50:45;;;;;;;7.65;6.63;;;;;;;14.17;69.42;102798.53;6180295;23;20004;-81
2022/12/18 05:53:12;;;;;;;8.27;7.05;;;;;;;14.18;69.29;102794.28;6206615;23;20005;-81
2022/12/18 05:55:40;;;;;;;7.00;6.30;;;;;;;14.17;69.26;102795.09;6132073;23;20020;-81
2022/12/18 05:58:07;;;;;;;7.80;6.97;;;;;;;14.18;69.07;102795.16;6143168;23;20017;-79
2022/12/18 06:00:35;;;;;;;8.05;6.95;;;;;;;14.17;69.26;102792.50;6171267;23;20016;-80
2022/12/18 06:03:02;;;;;;;9.02;7.40;;;;;;;14.16;68.75;102790.75;6167788;23;20009;-80
2022/12/18 06:05:34;;;;;;;8.25;7.03;;;;;;;14.17;68.76;102798.53;6171092;23;20009;-80
2022/12/18 06:08:34;;;;;;;7.43;6.68;;;;;;;14.17;68.80;102792.50;6176889;23;20036;-81
2022/12/18 06:11:02;;;;;;;7.55;6.75;;;;;;;14.17;68.67;102806.31;6174909;23;20001;-81
2022/12/18 06:13:27;;;;;;;8.07;6.68;;;;;;;14.16;68.91;102799.38;6165417;23;20032;-80
2022/12/18 06:15:53;;;;;;;8.30;6.80;;;;;;;14.17;68.62;102800.25;6181107;23;19993;-81
2022/12/18 06:18:18;;;;;;;8.50;7.18;;;;;;;14.16;68.88;102794.22;6182978;23;20001;-80
2022/12/18 06:20:44;;;;;;;7.35;6.50;;;;;;;14.14;68.97;102793.25;6140527;23;20013;-80
2022/12/18 06:23:10;;;;;;;7.60;6.72;;;;;;;14.15;68.62;102789.88;6141465;23;20425;-80
2022/12/18 06:25:40;;;;;;;7.75;6.93;;;;;;;14.15;68.30;102784.69;6143639;23;20091;-80
2022/12/18 06:28:05;;;;;;;8.23;7.15;;;;;;;14.15;68.44;102768.25;6167981;23;20020;-80
2022/12/18 06:30:32;;;;;;;8.05;7.25;;;;;;;14.15;68.51;102752.72;6181069;23;20032;-80
2022/12/18 06:32:59;;;;;;;7.65;6.65;;;;;;;14.14;68.36;102744.06;6185144;23;20005;-82
2022/12/18 06:39:17;;;;;;;7.70;6.88;;;;;;;14.15;68.22;102742.34;6211417;23;20000;-81
2022/12/18 06:42:31;;;;;;;8.70;7.07;;;;;;;14.13;68.14;102744.91;6179468;23;20031;-81
2022/12/18 06:44:59;;;;;;;7.78;6.28;;;;;;;14.15;68.00;102756.22;6171974;23;20071;-80
2022/12/18 07:02:59;;;;;;;7.63;6.57;;;;;;;14.16;67.62;102724.28;6297669;22;20019;-82
2022/12/18 07:05:26;;;;;;;9.02;6.72;;;;;;;14.15;67.41;102730.31;6295033;22;20099;-82
2022/12/18 07:07:55;;;;;;;7.93;6.95;;;;;;;14.15;67.69;102725.13;6293029;22;20003;-81
2022/12/18 07:10:27;;;;;;;7.38;6.65;;;;;;;14.15;67.44;102732.00;6318987;22;20109;-81
2022/12/18 07:13:02;;;;;;;8.10;6.97;;;;;;;14.15;67.23;102725.13;6293289;22;20003;-82
2022/12/18 07:15:31;;;;;;;8.18;6.75;;;;;;;14.16;67.15;102718.25;6296643;22;20026;-82
2022/12/18 07:44:42;;;;;;;9.52;6.50;;;;;;;14.46;64.12;102639.78;6267919;22;20027;-81
2022/12/18 07:47:08;;;;;;;7.63;5.97;;;;;;;14.69;62.46;102630.22;6287746;22;20078;-79
2022/12/18 07:49:33;;;;;;;8.38;6.07;;;;;;;14.76;62.17;102625.28;6256791;22;20086;-79
2022/12/18 07:58:35;;;;;;;9.80;5.90;;;;;;;14.94;61.08;102665.56;6232233;22;21097;31
2022/12/18 08:01:10;;;;;;;8.68;5.35;;;;;;;14.96;60.88;102672.53;6240605;23;19923;-80
2022/12/18 08:03:36;;;;;;;5.97;4.85;;;;;;;15.00;60.63;102671.81;6234787;23;20011;-81
2022/12/18 09:05:30;;;;;;;9.55;5.65;;;;;;;15.39;57.23;102684.16;6263171;22;20085;-81
2022/12/18 09:07:56;;;;;;;7.60;5.68;;;;;;;15.38;57.46;102677.22;6241668;22;20043;-81
2022/12/18 09:10:21;;;;;;;6.75;5.32;;;;;;;15.38;57.99;102671.16;6216207;22;20007;-80
2022/12/18 09:12:47;;;;;;;6.20;5.00;;;;;;;15.42;57.24;102663.50;6239342;22;20011;-80
2022/12/18 09:15:12;;;;;;;11.18;5.22;;;;;;;15.41;57.29;102656.56;6257977;22;20004;-80
2022/12/18 09:17:38;;;;;;;7.85;5.30;;;;;;;15.41;57.01;102656.56;6231224;22;20014;-80
2022/12/18 09:20:03;;;;;;;5.72;4.45;;;;;;;15.46;57.22;102655.81;6256129;22;20008;-80
2022/12/18 09:22:29;;;;;;;5.85;4.70;;;;;;;15.42;57.49;102645.34;6205220;22;20091;-80
2022/12/18 09:24:54;;;;;;;7.05;4.82;;;;;;;15.42;56.97;102640.16;6230379;22;20015;-80
2022/12/18 09:27:20;;;;;;;7.15;5.00;;;;;;;15.45;57.34;102638.50;6256435;22;20008;-80
2022/12/18 09:29:45;;;;;;;6.63;4.80;;;;;;;15.45;56.86;102644.56;6232901;22;20007;-79
2022/12/18 09:32:11;;;;;;;5.20;4.45;;;;;;;15.47;57.24;102653.25;6259435;22;20003;-79
2022/12/18 09:34:36;;;;;;;6.88;4.60;;;;;;;15.48;56.49;102638.56;6252921;22;20388;-80
2022/12/18 09:37:02;;;;;;;6.18;4.40;;;;;;;15.47;57.43;102634.22;6251925;22;20007;-80
2022/12/18 09:39:27;;;;;;;13.48;4.75;;;;;;;15.48;57.05;102620.41;6226317;22;20003;-80
2022/12/18 09:41:58;;;;;;;7.43;4.72;;;;;;;15.50;57.22;102606.63;6226406;22;20007;-80
2022/12/18 09:44:25;;;;;;;6.40;4.53;;;;;;;15.49;56.94;102604.03;6226218;22;20072;-80
2022/12/18 09:47:03;;;;;;;5.10;4.28;;;;;;;15.49;56.89;102615.28;6252015;22;20005;-80
2022/12/18 09:49:33;;;;;;;5.15;4.28;;;;;;;15.51;56.42;102616.19;6253237;22;20010;-79
2022/12/18 09:52:28;;;;;;;5.30;3.97;;;;;;;15.50;56.53;102631.72;6255560;22;20074;-80
2022/12/18 09:55:01;;;;;;;5.95;4.55;;;;;;;15.53;55.94;102618.84;6255727;22;20026;-80
2022/12/18 09:57:26;;;;;;;6.05;4.38;;;;;;;15.54;56.02;102623.19;6257543;22;20027;-80
2022/12/18 09:59:56;;;;;;;5.13;4.22;;;;;;;15.52;56.62;102627.44;6257985;22;20082;-80
2022/12/18 10:02:25;;;;;;;5.13;3.65;;;;;;;15.51;56.05;102628.28;6258040;22;20027;-80
2022/12/18 10:05:10;;;;;;;5.97;4.18;;;;;;;15.54;56.44;102628.38;6257550;22;20015;-79
2022/12/18 10:07:53;;;;;;;4.57;3.80;;;;;;;15.52;56.08;102623.13;6252398;22;20004;-79
2022/12/18 10:10:38;;;;;;;6.25;4.03;;;;;;;15.54;56.00;102636.16;6252396;22;20014;-80
2022/12/18 10:13:43;;;;;;;5.07;4.05;;;;;;;15.56;56.24;102626.69;6252199;22;20309;-79
2022/12/18 10:16:17;;;;;;;7.13;3.63;;;;;;;15.55;56.28;102622.34;6229315;22;20050;-79
2022/12/18 10:19:20;;;;;;;7.03;3.97;;;;;;;15.55;55.89;102623.22;6280974;22;20066;-81
2022/12/18 10:22:03;;;;;;;5.00;3.53;;;;;;;15.54;55.46;102621.44;6278842;22;20034;-80
2022/12/18 10:24:45;;;;;;;7.20;3.93;;;;;;;15.57;55.97;102623.25;6253817;22;20008;-81
2022/12/18 10:27:15;;;;;;;5.10;3.85;;;;;;;15.60;55.80;102623.34;6252235;22;20245;-79
2022/12/18 10:29:43;;;;;;;13.35;4.50;;;;;;;15.62;56.01;102613.88;6254146;22;20057;-79
2022/12/18 10:32:16;;;;;;;10.60;4.30;;;;;;;15.64;55.57;102613.09;6251416;22;19999;-79
2022/12/18 10:34:45;;;;;;;6.80;4.05;;;;;;;15.65;55.26;102606.19;6278366;22;20075;-79
2022/12/18 10:37:17;;;;;;;6.75;3.70;;;;;;;15.67;55.54;102601.91;6251539;22;20036;-79
2022/12/18 10:39:42;;;;;;;6.78;3.97;;;;;;;15.70;55.15;102602.00;6253949;22;20003;-79
2022/12/18 10:42:18;;;;;;;7.90;3.78;;;;;;;15.69;54.91;102591.56;6259037;22;20451;-79
2022/12/18 10:44:44;;;;;;;6.32;4.10;;;;;;;15.68;54.52;102580.31;6256280;22;20382;-81
2022/12/18 10:47:20;;;;;;;7.55;4.13;;;;;;;15.66;55.09;102566.41;6233627;22;20035;-81
2022/12/18 10:49:50;;;;;;;6.63;4.00;;;;;;;15.63;55.01;102568.91;6241935;22;19984;-81
2022/12/18 10:52:22;;;;;;;5.53;3.70;;;;;;;15.59;55.06;102564.47;6258572;22;20010;-82
2022/12/18 10:54:54;;;;;;;5.47;3.78;;;;;;;15.63;55.11;102561.13;6251504;22;19999;-80
2022/12/18 10:57:38;;;;;;;5.03;3.65;;;;;;;15.63;54.77;102551.66;6264553;22;20053;-81
2022/12/18 11:00:22;;;;;;;5.32;4.13;;;;;;;15.64;53.97;102552.53;6252309;22;20004;-79
2022/12/18 11:06:16;;;;;;;9.23;4.18;;;;;;;15.59;55.14;102560.19;6309339;22;20034;-78
2022/12/18 11:08:59;;;;;;;11.93;4.40;;;;;;;15.49;54.37;102558.19;6316257;22;19999;-81
2022/12/18 11:14:55;;;;;;;8.13;4.97;;;;;;;15.54;54.47;102541.00;6315296;22;20025;-79
2022/12/18 11:17:34;;;;;;;7.10;4.22;;;;;;;15.60;54.00;102545.50;6284151;22;20006;-79
2022/12/18 11:20:21;;;;;;;8.63;3.80;;;;;;;15.63;53.88;102546.47;6283550;22;20011;-78
2022/12/18 11:23:02;;;;;;;6.93;4.10;;;;;;;15.70;53.94;102552.69;6284076;22;20011;-78
2022/12/18 11:25:28;;;;;;;6.35;3.92;;;;;;;15.70;53.25;102538.81;6283812;22;20512;-78
2022/12/18 11:28:00;;;;;;;5.90;4.00;;;;;;;15.78;53.42;102533.00;6259358;22;19999;-79
2022/12/18 11:31:07;;;;;;;7.63;3.55;;;;;;;15.59;53.70;102535.94;6299964;22;20010;-82
2022/12/18 11:36:44;;;;;;;6.15;4.90;;;;;;;15.52;54.13;102521.94;6279032;22;20050;-83
2022/12/18 11:42:11;;;;;;;5.47;4.18;;;;;;;15.38;54.72;102513.78;6209108;23;20039;-81
2022/12/18 11:53:58;;;;;;;5.95;3.70;;;;;;;15.38;54.45;102474.88;6273477;22;20030;-81
2022/12/18 12:49:28;;;;;;;4.65;3.00;;;;;;;15.66;54.54;102413.31;6295895;22;20440;-79
2022/12/18 12:52:03;;;;;;;3.58;2.92;;;;;;;15.66;54.87;102407.22;6279886;22;20439;-79
2022/12/18 13:01:25;;;;;;;5.00;3.25;;;;;;;15.68;54.58;102402.94;6302197;22;20046;-81
2022/12/18 13:29:46;;;;;;;5.13;3.10;;;;;;;15.69;54.24;102339.81;6299542;22;20011;-83
2022/12/18 14:17:01;;;;;;;4.68;2.70;;;;;;;15.84;53.83;102285.69;6265077;22;20430;-78
2022/12/18 14:19:27;;;;;;;3.40;2.60;;;;;;;15.86;54.05;102273.63;6202437;22;20015;-77
2022/12/18 14:21:53;;;;;;;7.43;2.78;;;;;;;15.86;53.91;102272.75;6202540;22;20019;-77
2022/12/18 14:24:21;;;;;;;5.05;2.72;;;;;;;15.87;54.10;102280.53;6227152;22;20008;-77
2022/12/18 14:26:50;;;;;;;3.80;2.80;;;;;;;15.87;54.07;102261.50;6253073;22;20332;-77
2022/12/18 14:29:26;;;;;;;5.50;2.92;;;;;;;15.93;54.02;102244.31;6259330;22;20059;-77
2022/12/18 14:32:27;;;;;;;3.38;2.65;;;;;;;15.91;53.80;102237.34;6262541;22;20012;-77
2022/12/18 14:34:54;;;;;;;4.68;2.63;;;;;;;15.91;53.83;102232.16;6166278;23;20071;-77
2022/12/18 14:40:47;;;;;;;5.80;3.15;;;;;;;15.94;54.11;102216.63;6212074;23;20051;-84
2022/12/18 14:43:14;;;;;;;6.55;2.80;;;;;;;15.93;53.63;102214.91;6183542;22;20012;-82
2022/12/18 14:45:44;;;;;;;8.95;3.00;;;;;;;15.90;53.88;102217.44;6270023;22;20003;-81
2022/12/18 14:48:22;;;;;;;5.93;2.90;;;;;;;15.90;53.83;102226.09;6288641;22;20046;-80
2022/12/18 14:51:26;;;;;;;3.15;2.58;;;;;;;15.91;53.73;102226.97;6284867;22;20324;-80
2022/12/18 14:54:03;;;;;;;;;;;;;;;15.89;53.81;102220.88;6259143;22;19996;-80
2022/12/18 14:56:34;;;;;;;3.78;2.70;;;;;;;15.89;53.78;102219.16;6269281;22;19909;-81
2022/12/18 14:59:03;;;;;;;3.25;2.53;;;;;;;15.89;54.08;102213.94;6272156;22;20010;-81
2022/12/18 15:01:39;;;;;;;3.58;2.53;;;;;;;15.89;53.57;102223.47;6271561;22;20057;-81
2022/12/18 15:04:22;;;;;;;3.45;2.50;;;;;;;15.89;53.62;102224.34;6267854;22;20012;-80
2022/12/18 15:06:48;;;;;;;3.88;2.72;;;;;;;15.89;53.49;102226.06;6262089;22;20010;-80
2022/12/18 15:09:27;;;;;;;7.60;2.92;;;;;;;15.89;53.49;102220.88;6252341;22;20319;-80
2022/12/18 15:11:58;;;;;;;3.55;2.65;;;;;;;15.88;53.41;102198.38;6255628;22;20035;-80
2022/12/18 15:14:30;;;;;;;3.33;2.63;;;;;;;15.89;53.37;102193.19;6255873;22;20007;-80
2022/12/18 15:16:58;;;;;;;4.03;2.55;;;;;;;15.88;53.24;102186.25;6282310;22;20016;-81
2022/12/18 15:19:38;;;;;;;2.88;2.45;;;;;;;15.90;52.99;102189.75;6252814;22;20004;-80
2022/12/18 15:22:04;;;;;;;4.22;2.72;;;;;;;15.89;53.29;102188.00;6253543;22;20025;-81
2022/12/18 15:24:32;;;;;;;4.28;2.70;;;;;;;15.89;53.22;102172.41;6252841;22;20053;-81
2022/12/18 15:26:58;;;;;;;4.47;2.85;;;;;;;15.91;53.21;102173.31;6253591;22;20000;-80
2022/12/18 15:29:25;;;;;;;3.47;2.60;;;;;;;15.89;53.14;102169.81;6255463;22;20054;-79
2022/12/18 15:32:19;;;;;;;3.20;2.40;;;;;;;15.92;53.22;102182.88;6231847;22;20412;-81
2022/12/18 15:34:45;;;;;;;3.33;2.70;;;;;;;15.91;53.14;102186.31;6250313;22;20007;-81
2022/12/18 15:37:10;;;;;;;3.53;2.70;;;;;;;15.93;53.23;102186.34;6205608;22;20455;-80
2022/12/18 15:39:35;;;;;;;3.15;2.65;;;;;;;15.93;52.72;102184.63;6252779;22;20031;-80
2022/12/18 15:44:45;;;;;;;3.47;2.45;;;;;;;15.94;53.06;102175.09;6278983;22;20064;-80
2022/12/18 15:47:12;;;;;;;3.95;2.72;;;;;;;15.94;52.98;102167.31;6226760;22;20011;-80
2022/12/18 15:49:38;;;;;;;4.85;2.72;;;;;;;15.93;52.91;102163.84;6251493;22;20015;-80
2022/12/18 15:52:04;;;;;;;3.75;2.63;;;;;;;15.95;52.83;102150.91;6226257;22;20363;-80
2022/12/18 15:57:22;;;;;;;3.67;2.95;;;;;;;15.96;52.94;102144.84;6246090;22;20110;-80
2022/12/18 15:59:48;;;;;;;4.13;2.70;;;;;;;15.96;52.71;102132.75;6255243;22;20086;-80
2022/12/18 16:02:17;;;;;;;3.22;2.53;;;;;;;15.97;52.91;102125.84;6255407;22;20002;-81
2022/12/18 16:04:42;;;;;;;3.42;2.47;;;;;;;15.96;52.85;102132.75;6258805;22;20542;-81
2022/12/18 16:07:09;;;;;;;3.08;2.42;;;;;;;15.97;52.64;102136.22;6255736;22;19999;-80
2022/12/18 16:09:35;;;;;;;3.35;2.50;;;;;;;16.00;52.76;102141.47;6232584;22;20016;-80
2022/12/18 16:12:01;;;;;;;3.08;2.53;;;;;;;16.00;52.86;102138.88;6261865;22;20474;-79
2022/12/18 16:14:31;;;;;;;3.10;2.35;;;;;;;15.98;52.81;102141.47;6241902;22;20011;-79
2022/12/18 16:17:08;;;;;;;3.10;2.67;;;;;;;15.99;52.78;102142.31;6282991;22;20020;-79
2022/12/18 16:19:34;;;;;;;4.13;2.70;;;;;;;15.99;52.75;102142.31;6238140;22;20004;-78
2022/12/18 16:22:01;;;;;;;3.70;2.80;;;;;;;16.00;52.83;102131.97;6234112;22;20019;-79
2022/12/18 16:24:29;;;;;;;3.53;2.75;;;;;;;15.99;52.69;102137.13;6231262;22;20034;-79
2022/12/18 16:26:56;;;;;;;2.90;2.50;;;;;;;16.01;52.37;102125.06;6255902;22;20003;-79
2022/12/18 16:29:26;;;;;;;3.08;2.50;;;;;;;16.01;52.76;102120.72;6284215;22;20042;-78
2022/12/18 16:31:52;;;;;;;3.40;2.83;;;;;;;16.01;52.57;102107.75;6236409;22;20015;-79
2022/12/18 16:34:26;;;;;;;3.65;2.60;;;;;;;16.01;52.59;102105.16;6282843;22;20018;-79
2022/12/18 16:36:53;;;;;;;7.75;2.63;;;;;;;16.02;52.20;102106.00;6281082;22;19996;-78
2022/12/18 17:08:18;;;;;;;3.55;2.90;;;;;;;16.06;52.23;102074.06;6253989;22;20443;-80
2022/12/18 17:10:44;;;;;;;3.72;2.65;;;;;;;16.05;52.11;102080.13;6271590;22;20072;-79
2022/12/18 17:13:09;;;;;;;3.70;3.05;;;;;;;16.07;51.99;102072.34;6273261;22;20011;-80
2022/12/18 17:15:36;;;;;;;3.60;2.70;;;;;;;16.07;52.12;102081.03;6242045;22;19999;-79
2022/12/18 17:18:02;;;;;;;4.35;3.00;;;;;;;16.07;52.02;102067.13;6288799;22;20046;-80
2022/12/18 17:20:29;;;;;;;4.32;3.00;;;;;;;16.06;51.88;102071.47;6263851;22;20037;-79
2022/12/18 17:22:55;;;;;;;3.70;2.85;;;;;;;16.07;51.90;102073.22;6260062;22;20000;-78
2022/12/18 17:45:06;;;;;;;5.47;3.50;;;;;;;16.13;51.77;102068.09;6266736;22;20373;-80
2022/12/18 17:47:39;;;;;;;4.53;3.30;;;;;;;16.14;51.90;102069.00;6293445;22;20037;-81
2022/12/18 17:50:05;;;;;;;5.15;3.33;;;;;;;16.13;51.68;102068.09;6288447;22;20004;-80
2022/12/18 17:52:30;;;;;;;4.85;3.35;;;;;;;16.14;52.07;102071.59;6285312;22;20008;-79
2022/12/18 17:54:56;;;;;;;5.70;3.58;;;;;;;16.15;51.71;102068.16;6258877;22;20010;-79
2022/12/18 18:44:09;;;;;;;5.25;3.63;;;;;;;16.29;52.90;102044.97;6259634;22;20023;-80
2022/12/18 18:46:35;;;;;;;4.38;3.17;;;;;;;16.28;52.67;102046.72;6287221;22;20086;-80
2022/12/18 18:49:00;;;;;;;8.02;3.63;;;;;;;16.28;52.72;102051.91;6260378;22;20426;-79
2022/12/18 18:51:25;;;;;;;4.65;3.42;;;;;;;16.28;52.64;102043.25;6261194;22;20015;-80
2022/12/18 18:53:52;;;;;;;4.68;3.70;;;;;;;16.28;52.67;102040.66;6310415;22;20399;-80
2022/12/18 18:56:22;;;;;;;4.60;3.80;;;;;;;16.28;52.38;102038.91;6309561;22;19999;-80
2022/12/18 18:58:48;;;;;;;3.78;3.25;;;;;;;16.27;52.73;102033.72;6282568;22;20000;-79
2022/12/18 19:01:16;;;;;;;3.97;3.10;;;;;;;16.27;52.78;102034.59;6282563;22;20007;-79
2022/12/18 19:03:42;;;;;;;4.90;3.33;;;;;;;16.27;52.41;102039.78;6283456;22;20004;-80
2022/12/18 19:06:12;;;;;;;4.40;3.40;;;;;;;16.27;52.30;102037.19;6259102;22;20042;-80
2022/12/18 19:08:39;;;;;;;5.18;3.40;;;;;;;16.27;52.44;102025.94;6285251;22;20522;-79
2022/12/18 19:13:54;;;;;;;4.22;3.05;;;;;;;16.28;51.85;102035.44;6311842;22;20320;-79
2022/12/18 19:16:19;;;;;;;4.40;3.20;;;;;;;16.29;51.80;102040.69;6285661;22;20327;-79
2022/12/18 19:18:45;;;;;;;4.22;3.13;;;;;;;16.28;52.15;102028.53;6261404;22;20011;-80
2022/12/18 19:21:10;;;;;;;3.67;3.05;;;;;;;16.27;52.18;102025.94;6261650;22;20116;-80
2022/12/18 19:23:36;;;;;;;4.20;3.20;;;;;;;16.27;52.22;102021.59;6261807;22;20382;-80
2022/12/18 19:26:03;;;;;;;4.47;3.10;;;;;;;16.28;51.98;102028.53;6286569;22;20031;-80
2022/12/18 19:28:29;;;;;;;4.28;2.97;;;;;;;16.30;52.25;102026.81;6285997;22;19999;-81
2022/12/18 19:30:58;;;;;;;5.05;3.08;;;;;;;16.30;52.18;102020.75;6291030;22;20003;-81
2022/12/18 19:33:24;;;;;;;5.93;3.30;;;;;;;16.27;52.16;102023.31;6288334;22;20003;-80
2022/12/18 19:35:50;;;;;;;4.72;3.40;;;;;;;16.24;52.05;102030.22;6260889;22;20022;-81
2022/12/18 19:38:16;;;;;;;5.53;3.40;;;;;;;16.21;52.38;102019.75;6258300;22;20011;-81
2022/12/18 19:40:43;;;;;;;5.88;3.08;;;;;;;16.20;52.36;102014.53;6258061;22;20424;-81
2022/12/18 19:43:09;;;;;;;4.45;3.58;;;;;;;16.18;52.44;102017.13;6311741;22;20066;-81
2022/12/18 19:45:35;;;;;;;4.43;3.55;;;;;;;16.17;52.44;102014.50;6286069;22;20022;-82
2022/12/18 19:48:08;;;;;;;6.70;3.80;;;;;;;16.17;52.58;102009.31;6224908;23;20048;-82
2022/12/18 19:50:39;;;;;;;7.43;4.05;;;;;;;16.21;52.41;102004.19;6169959;23;20429;-82
2022/12/18 19:53:05;;;;;;;10.52;4.38;;;;;;;16.28;52.90;102010.34;6203814;23;20000;-81
2022/12/18 19:55:30;;;;;;;8.93;4.13;;;;;;;16.34;53.14;102012.16;6206399;23;20043;-80
2022/12/18 19:57:56;;;;;;;10.48;4.03;;;;;;;16.35;52.96;102001.81;6222955;23;20008;-81
2022/12/18 20:00:24;;;;;;;8.15;4.05;;;;;;;16.34;53.08;101993.97;6224821;23;20010;-80
2022/12/18 20:02:49;;;;;;;6.43;4.38;;;;;;;16.25;53.44;101999.91;6222973;23;20009;-79
2022/12/18 20:05:16;;;;;;;8.02;4.07;;;;;;;16.16;53.69;102000.66;6220901;23;20150;-78
2022/12/18 20:07:41;;;;;;;7.43;4.00;;;;;;;16.11;54.02;101996.22;6169721;23;20009;-78
2022/12/18 20:10:12;;;;;;;5.93;4.28;;;;;;;16.04;54.05;101993.53;6170027;23;20009;-78
2022/12/18 20:12:37;;;;;;;8.82;4.10;;;;;;;16.02;54.30;101995.22;6194881;23;20068;-78
2022/12/18 20:15:03;;;;;;;6.88;4.25;;;;;;;15.99;54.47;101990.00;6169995;23;20013;-79
2022/12/18 20:17:28;;;;;;;7.78;4.55;;;;;;;15.97;54.35;101990.84;6168299;23;20074;-78
2022/12/18 20:19:53;;;;;;;7.35;4.63;;;;;;;15.94;54.70;101988.19;6140469;23;20460;-79
2022/12/18 20:22:19;;;;;;;5.80;4.15;;;;;;;15.91;54.40;101983.81;6165748;23;20009;-78
2022/12/18 20:24:44;;;;;;;6.57;4.20;;;;;;;15.89;54.78;101980.31;6187132;22;20011;-78
2022/12/18 20:27:12;;;;;;;6.70;4.53;;;;;;;15.88;54.59;101983.78;6256775;22;20477;-78
2022/12/18 20:29:42;;;;;;;6.80;4.20;;;;;;;15.87;54.86;101978.56;6257295;22;20000;-78
2022/12/18 20:32:23;;;;;;;5.95;4.32;;;;;;;15.83;54.70;101969.88;6257976;22;20031;-78
2022/12/18 20:34:53;;;;;;;5.90;4.43;;;;;;;15.81;54.76;101971.56;6284230;22;20335;-78
2022/12/18 20:37:18;;;;;;;6.07;4.32;;;;;;;15.80;54.80;101972.41;6256936;22;20308;-78
2022/12/18 20:39:47;;;;;;;8.65;5.13;;;;;;;15.80;54.82;101982.78;6310677;22;20010;-78
2022/12/18 20:42:17;;;;;;;5.35;4.45;;;;;;;15.77;54.57;101972.34;6257000;22;20338;-79
2022/12/18 20:44:44;;;;;;;7.15;4.70;;;;;;;15.76;54.78;101966.28;6253583;22;20321;-78
2022/12/18 20:47:19;;;;;;;5.72;4.55;;;;;;;15.75;54.78;101966.28;6254212;22;20026;-78
2022/12/18 20:49:47;;;;;;;6.78;4.68;;;;;;;15.72;54.79;101964.50;6279184;22;20010;-78
2022/12/18 20:52:16;;;;;;;8.00;4.63;;;;;;;15.74;54.84;101951.53;6254264;22;20007;-78
2022/12/18 20:54:41;;;;;;;6.60;4.57;;;;;;;15.74;54.95;101948.94;6254071;22;20011;-78
2022/12/18 20:57:09;;;;;;;5.50;4.45;;;;;;;15.72;54.82;101940.25;6280111;22;20450;-78
2022/12/18 20:59:37;;;;;;;5.93;4.65;;;;;;;15.73;54.91;101942.88;6255297;22;20436;-78
2022/12/18 21:02:15;;;;;;;5.85;4.32;;;;;;;15.72;54.83;101937.66;6280097;22;20053;-78
2022/12/18 21:04:43;;;;;;;5.45;4.03;;;;;;;15.72;54.89;101938.56;6278227;22;19999;-79
2022/12/18 21:07:11;;;;;;;6.18;4.03;;;;;;;15.73;54.89;101934.22;6278440;22;20008;-78
2022/12/18 21:09:37;;;;;;;5.53;4.10;;;;;;;15.72;54.80;101930.78;6279317;22;20000;-79
2022/12/18 21:15:05;;;;;;;;;;;;;;;;;;;;;
2022/12/18 21:17:31;;;;;;;5.28;4.18;;;;;;;15.70;54.98;101915.97;6261001;22;20448;-78
2022/12/18 21:19:56;;;;;;;5.63;4.20;;;;;;;15.69;55.04;101929.81;6258221;22;20018;-79
2022/12/18 21:22:22;;;;;;;5.03;4.15;;;;;;;15.69;55.03;101925.47;6257248;22;20008;-78
2022/12/18 21:24:47;;;;;;;6.25;4.38;;;;;;;15.69;55.10;101916.81;6284954;22;20000;-78
2022/12/18 21:27:13;;;;;;;5.13;3.92;;;;;;;15.68;54.90;101900.38;6256772;22;20034;-78
2022/12/18 21:29:39;;;;;;;5.60;4.28;;;;;;;15.68;55.00;101890.00;6281262;22;20324;-78
2022/12/18 21:32:04;;;;;;;4.70;3.95;;;;;;;15.70;55.03;101892.59;6283654;22;20022;-78
2022/12/18 21:34:31;;;;;;;5.18;4.18;;;;;;;15.69;54.98;101896.94;6283939;22;20463;-78
2022/12/18 21:36:59;;;;;;;7.65;4.18;;;;;;;15.69;55.09;101883.94;6284460;22;20501;-79
2022/12/18 21:39:26;;;;;;;4.95;4.25;;;;;;;15.69;55.14;101885.69;6284258;22;20008;-78
2022/12/18 21:44:36;;;;;;;6.57;4.40;;;;;;;15.68;55.06;101860.56;6302725;22;20005;-84
2022/12/18 21:47:02;;;;;;;4.90;4.07;;;;;;;15.67;55.39;101858.84;6311876;22;20063;-85
2022/12/18 21:59:49;;;;;;;5.53;4.20;;;;;;;15.64;55.11;101837.19;6286054;22;20007;-84
2022/12/18 22:02:27;;;;;;;5.22;4.25;;;;;;;15.65;55.32;101840.66;6311292;22;19999;-84
2022/12/18 22:04:53;;;;;;;6.72;4.32;;;;;;;15.64;55.29;101824.22;6281057;22;20007;-85
2022/12/18 22:07:19;;;;;;;5.20;4.13;;;;;;;15.64;55.46;101826.81;6252327;22;20020;-84
2022/12/18 22:09:45;;;;;;;5.53;4.47;;;;;;;15.64;55.32;101813.84;6249867;23;20040;-84
2022/12/18 22:12:33;;;;;;;4.90;4.28;;;;;;;15.62;55.36;101815.53;6249435;23;19988;-84
2022/12/18 22:22:44;;;;;;;7.45;4.45;;;;;;;15.63;55.82;101788.75;6266254;22;20010;-84
2022/12/18 22:25:13;;;;;;;4.50;3.83;;;;;;;15.62;55.43;101779.19;6279237;22;19991;-84
2022/12/18 22:30:02;;;;;;;4.63;4.05;;;;;;;15.62;55.53;101766.22;6279562;22;20008;-84
2022/12/18 22:30:30;;;;;;;5.88;4.70;;;;;;;15.62;55.66;101761.03;6305973;22;19988;-84
2022/12/18 22:32:56;;;;;;;5.75;4.70;;;;;;;15.61;55.53;101764.50;6279210;22;20006;-84
2022/12/18 22:42:17;;;;;;;6.47;5.20;;;;;;;15.60;55.55;101765.34;6304377;22;20026;-84
2022/12/18 22:51:28;;;;;;;8.13;5.68;;;;;;;15.59;55.57;101741.97;6297320;22;20027;-78
2022/12/18 22:53:56;;;;;;;7.72;5.70;;;;;;;15.59;55.70;101739.38;6231545;22;20011;-78
2022/12/18 22:56:22;;;;;;;9.77;5.85;;;;;;;15.59;55.64;101748.03;6256559;22;20008;-78
2022/12/18 22:58:49;;;;;;;7.97;6.05;;;;;;;15.59;55.49;101747.16;6256437;22;20024;-78
2022/12/18 23:01:23;;;;;;;9.35;6.30;;;;;;;15.57;55.76;101747.16;6255192;22;20505;-78
2022/12/18 23:03:49;;;;;;;8.90;6.40;;;;;;;15.57;55.72;101747.16;6256471;22;20328;-79
2022/12/18 23:06:15;;;;;;;9.40;6.20;;;;;;;15.57;55.76;101748.84;6234835;22;20019;-79
2022/12/18 23:08:42;;;;;;;7.57;5.90;;;;;;;15.57;55.69;101743.66;6259773;22;20034;-79
2022/12/18 23:11:08;;;;;;;8.00;6.10;;;;;;;15.55;55.68;101733.28;6263566;22;20007;-82
2022/12/18 23:13:36;;;;;;;10.48;6.50;;;;;;;15.56;55.65;101726.38;6252362;22;20007;-84
2022/12/18 23:16:10;;;;;;;8.80;6.18;;;;;;;15.55;55.63;101724.63;6277233;22;20068;-83
2022/12/18 23:18:36;;;;;;;9.38;6.28;;;;;;;15.54;55.80;101720.28;6274140;22;19986;-83
2022/12/18 23:21:07;;;;;;;8.43;6.03;;;;;;;15.53;55.80;101711.63;6248876;23;20008;-84
2022/12/18 23:23:37;;;;;;;10.75;6.20;;;;;;;15.53;55.62;101708.19;6269030;22;20010;-84
2022/12/18 23:26:07;;;;;;;9.93;6.60;;;;;;;15.54;55.96;101709.91;6279352;22;20018;-84
2022/12/18 23:28:39;;;;;;;9.05;6.30;;;;;;;15.51;55.73;101710.75;6279174;22;20014;-83
2022/12/18 23:31:09;;;;;;;8.90;6.57;;;;;;;15.52;55.65;101720.25;6239293;22;20011;-83
2022/12/18 23:33:35;;;;;;;9.75;6.47;;;;;;;15.52;55.70;101711.59;6310498;22;20007;-83
2022/12/18 23:36:03;;;;;;;9.57;6.18;;;;;;;15.51;55.70;101721.13;6265254;22;20011;-84
2022/12/18 23:38:30;;;;;;;9.75;6.43;;;;;;;15.51;55.62;101723.72;6274057;22;20004;-84
2022/12/18 23:53:58;;;;;;;8.75;5.95;;;;;;;15.48;55.68;101681.28;6299096;22;20020;-82
2022/12/18 23:56:34;;;;;;;9.02;6.22;;;;;;;15.48;55.87;101686.47;6279101;22;20008;-84
2022/12/18 23:59:00;;;;;;;8.23;5.97;;;;;;;15.49;55.73;101677.84;6279359;22;20008;-84
